DAL2793 MMUN-KLAX
Flight info
| Callsign | DAL2793 |
|---|---|
| Flight time | 4h 39m |
| Altitude | 34000 |
| Route | UDGUV1F UDGUV DCT MID UJ26 PERGO UT37 EBDUB/N0468F360 UT37 SESNO DCT MTY UT11 PPE J93 ASUTA DCT AMMOR OLAAA2 |
| Aircraft | B739/M-SDE2E3FGHIRWXY/LB1 |
Departure
| Time | 2026-04-20 12:05 |
|---|---|
| Airport | Cancún International Airport (MMUN) |
Arrival
| Time | 2026-04-20 16:45 |
|---|---|
| Airport | Los Angeles International Airport (KLAX) |
| Time | Latitude | Longitude | Altitude | Speed | Heading |
|---|---|---|---|---|---|
| 2026-04-20 11:53 | 21.03591 | -86.86782 | 27 ft | 0 kts | 307° |
| 2026-04-20 11:58 | 21.03582 | -86.86770 | 27 ft | 4 kts | 307° |
| 2026-04-20 11:58 | 21.03566 | -86.86747 | 27 ft | 4 kts | 303° |
| 2026-04-20 11:59 | 21.03555 | -86.86721 | 27 ft | 4 kts | 274° |
| 2026-04-20 11:59 | 21.03560 | -86.86696 | 27 ft | 4 kts | 226° |
| 2026-04-20 11:59 | 21.03569 | -86.86688 | 27 ft | 1 kts | 213° |
| 2026-04-20 12:02 | 21.03539 | -86.86709 | 27 ft | 9 kts | 212° |
| 2026-04-20 12:02 | 21.03459 | -86.86763 | 27 ft | 17 kts | 214° |
| 2026-04-20 12:03 | 21.03338 | -86.86833 | 26 ft | 22 kts | 180° |
| 2026-04-20 12:03 | 21.03237 | -86.86717 | 26 ft | 28 kts | 123° |
| 2026-04-20 12:03 | 21.03094 | -86.86483 | 27 ft | 39 kts | 123° |
| 2026-04-20 12:03 | 21.02975 | -86.86290 | 27 ft | 22 kts | 123° |
| 2026-04-20 12:04 | 21.02850 | -86.86262 | 27 ft | 22 kts | 218° |
| 2026-04-20 12:04 | 21.02830 | -86.86384 | 28 ft | 24 kts | 302° |
| 2026-04-20 12:04 | 21.03080 | -86.86781 | 28 ft | 103 kts | 303° |
| 2026-04-20 12:04 | 21.03610 | -86.87627 | 37 ft | 165 kts | 304° |
| 2026-04-20 12:05 | 21.04297 | -86.88701 | 509 ft | 182 kts | 305° |
| 2026-04-20 12:05 | 21.05047 | -86.89865 | 1135 ft | 200 kts | 307° |
| 2026-04-20 12:05 | 21.05856 | -86.91187 | 1522 ft | 230 kts | 305° |
| 2026-04-20 12:05 | 21.06329 | -86.92272 | 1685 ft | 256 kts | 285° |
| 2026-04-20 12:06 | 21.06222 | -86.94214 | 2209 ft | 270 kts | 256° |
| 2026-04-20 12:06 | 21.05550 | -86.96836 | 2967 ft | 277 kts | 256° |
| 2026-04-20 12:06 | 21.05239 | -86.98165 | 3497 ft | 276 kts | 257° |
| 2026-04-20 12:06 | 21.04806 | -87.00160 | 4320 ft | 274 kts | 258° |
| 2026-04-20 12:07 | 21.04390 | -87.02172 | 5067 ft | 276 kts | 258° |
| 2026-04-20 12:07 | 21.03983 | -87.04180 | 5769 ft | 279 kts | 258° |
| 2026-04-20 12:07 | 21.03482 | -87.06214 | 6475 ft | 282 kts | 252° |
| 2026-04-20 12:07 | 21.02845 | -87.08206 | 7144 ft | 284 kts | 251° |
| 2026-04-20 12:08 | 21.02194 | -87.10193 | 7792 ft | 287 kts | 251° |
| 2026-04-20 12:08 | 21.01538 | -87.12207 | 8408 ft | 290 kts | 251° |
| 2026-04-20 12:08 | 21.00875 | -87.14272 | 9085 ft | 292 kts | 251° |
| 2026-04-20 12:08 | 21.00215 | -87.16345 | 9747 ft | 295 kts | 251° |
| 2026-04-20 12:09 | 20.99555 | -87.18423 | 10344 ft | 298 kts | 251° |
| 2026-04-20 12:09 | 20.98890 | -87.20519 | 10918 ft | 301 kts | 251° |
| 2026-04-20 12:09 | 20.98204 | -87.22683 | 11198 ft | 317 kts | 251° |
| 2026-04-20 12:09 | 20.97472 | -87.24989 | 11357 ft | 334 kts | 251° |
| 2026-04-20 12:10 | 20.96712 | -87.27383 | 11746 ft | 343 kts | 251° |
| 2026-04-20 12:10 | 20.95943 | -87.29808 | 12321 ft | 345 kts | 251° |
| 2026-04-20 12:10 | 20.95166 | -87.32255 | 12889 ft | 348 kts | 251° |
| 2026-04-20 12:10 | 20.94389 | -87.34700 | 13430 ft | 351 kts | 251° |
| 2026-04-20 12:11 | 20.93596 | -87.37192 | 13963 ft | 354 kts | 251° |
| 2026-04-20 12:11 | 20.92808 | -87.39666 | 14438 ft | 356 kts | 251° |
| 2026-04-20 12:11 | 20.92004 | -87.42187 | 14967 ft | 357 kts | 252° |
| 2026-04-20 12:11 | 20.91203 | -87.44696 | 15475 ft | 359 kts | 252° |
| 2026-04-20 12:12 | 20.90392 | -87.47236 | 15968 ft | 361 kts | 252° |
| 2026-04-20 12:12 | 20.89575 | -87.49793 | 16460 ft | 363 kts | 252° |
| 2026-04-20 12:12 | 20.88761 | -87.52342 | 16928 ft | 365 kts | 252° |
| 2026-04-20 12:12 | 20.87934 | -87.54929 | 17415 ft | 367 kts | 252° |
| 2026-04-20 12:13 | 20.87110 | -87.57505 | 17879 ft | 370 kts | 252° |
| 2026-04-20 12:13 | 20.86273 | -87.60118 | 18344 ft | 372 kts | 252° |
| 2026-04-20 12:13 | 20.85441 | -87.62717 | 18742 ft | 373 kts | 252° |
| 2026-04-20 12:13 | 20.84593 | -87.65365 | 19160 ft | 375 kts | 252° |
| 2026-04-20 12:14 | 20.83745 | -87.68010 | 19575 ft | 376 kts | 252° |
| 2026-04-20 12:14 | 20.82893 | -87.70669 | 19974 ft | 378 kts | 252° |
| 2026-04-20 12:14 | 20.82049 | -87.73299 | 20375 ft | 379 kts | 252° |
| 2026-04-20 12:14 | 20.81191 | -87.75978 | 20776 ft | 380 kts | 253° |
| 2026-04-20 12:15 | 20.80732 | -87.78757 | 21125 ft | 381 kts | 272° |
| 2026-04-20 12:15 | 20.80888 | -87.81588 | 21552 ft | 381 kts | 275° |
| 2026-04-20 12:15 | 20.81114 | -87.84414 | 21935 ft | 382 kts | 276° |
| 2026-04-20 12:15 | 20.81356 | -87.87254 | 22307 ft | 384 kts | 276° |
| 2026-04-20 12:16 | 20.81595 | -87.90104 | 22687 ft | 385 kts | 275° |
| 2026-04-20 12:16 | 20.81827 | -87.92944 | 23054 ft | 387 kts | 275° |
| 2026-04-20 12:16 | 20.82055 | -87.95837 | 23431 ft | 389 kts | 275° |
| 2026-04-20 12:16 | 20.82275 | -87.98712 | 23771 ft | 390 kts | 275° |
| 2026-04-20 12:17 | 20.82492 | -88.01590 | 24077 ft | 391 kts | 275° |
| 2026-04-20 12:17 | 20.82709 | -88.04516 | 24400 ft | 392 kts | 275° |
| 2026-04-20 12:17 | 20.82923 | -88.07416 | 24711 ft | 393 kts | 275° |
| 2026-04-20 12:17 | 20.83137 | -88.10331 | 25022 ft | 394 kts | 275° |
| 2026-04-20 12:18 | 20.83351 | -88.13259 | 25329 ft | 395 kts | 274° |
| 2026-04-20 12:18 | 20.83564 | -88.16180 | 25641 ft | 397 kts | 274° |
| 2026-04-20 12:18 | 20.83776 | -88.19103 | 25948 ft | 398 kts | 274° |
| 2026-04-20 12:18 | 20.83991 | -88.22057 | 26251 ft | 399 kts | 274° |
| 2026-04-20 12:19 | 20.84207 | -88.25037 | 26568 ft | 400 kts | 274° |
| 2026-04-20 12:19 | 20.84420 | -88.27985 | 26956 ft | 398 kts | 274° |
| 2026-04-20 12:19 | 20.84634 | -88.30954 | 27404 ft | 395 kts | 274° |
| 2026-04-20 12:19 | 20.84841 | -88.33834 | 27849 ft | 393 kts | 274° |
| 2026-04-20 12:20 | 20.85052 | -88.36772 | 28255 ft | 392 kts | 274° |
| 2026-04-20 12:20 | 20.85258 | -88.39647 | 28649 ft | 391 kts | 274° |
| 2026-04-20 12:20 | 20.85465 | -88.42539 | 29076 ft | 389 kts | 273° |
| 2026-04-20 12:20 | 20.85670 | -88.45416 | 29509 ft | 387 kts | 273° |
| 2026-04-20 12:21 | 20.85874 | -88.48285 | 29914 ft | 385 kts | 273° |
| 2026-04-20 12:21 | 20.86076 | -88.51136 | 30304 ft | 384 kts | 273° |
| 2026-04-20 12:21 | 20.86277 | -88.53972 | 30659 ft | 382 kts | 273° |
| 2026-04-20 12:21 | 20.86477 | -88.56800 | 31006 ft | 380 kts | 273° |
| 2026-04-20 12:22 | 20.86675 | -88.59612 | 31334 ft | 379 kts | 274° |
| 2026-04-20 12:22 | 20.86872 | -88.62423 | 31655 ft | 377 kts | 274° |
| 2026-04-20 12:22 | 20.87065 | -88.65180 | 31975 ft | 376 kts | 274° |
| 2026-04-20 12:22 | 20.87261 | -88.67983 | 32282 ft | 374 kts | 274° |
| 2026-04-20 12:23 | 20.87454 | -88.70751 | 32573 ft | 373 kts | 274° |
| 2026-04-20 12:23 | 20.87649 | -88.73545 | 32670 ft | 378 kts | 274° |
| 2026-04-20 12:23 | 20.88040 | -88.79185 | 32773 ft | 388 kts | 274° |
| 2026-04-20 12:24 | 20.88443 | -88.85018 | 32870 ft | 398 kts | 274° |
| 2026-04-20 12:24 | 20.88854 | -88.91002 | 32964 ft | 408 kts | 274° |
| 2026-04-20 12:25 | 20.89272 | -88.97124 | 33050 ft | 417 kts | 274° |
| 2026-04-20 12:25 | 20.89698 | -89.03386 | 33134 ft | 426 kts | 274° |
| 2026-04-20 12:26 | 20.90126 | -89.09732 | 33236 ft | 433 kts | 274° |
| 2026-04-20 12:26 | 20.90345 | -89.12980 | 33346 ft | 436 kts | 274° |
| 2026-04-20 12:26 | 20.90563 | -89.16223 | 33560 ft | 435 kts | 274° |
| 2026-04-20 12:27 | 20.90778 | -89.19437 | 33857 ft | 432 kts | 274° |
| 2026-04-20 12:27 | 20.90990 | -89.22623 | 34100 ft | 430 kts | 274° |
| 2026-04-20 12:27 | 20.91412 | -89.28976 | 34090 ft | 430 kts | 274° |
| 2026-04-20 12:28 | 20.91835 | -89.35369 | 34104 ft | 431 kts | 274° |
| 2026-04-20 12:28 | 20.92257 | -89.41791 | 34105 ft | 432 kts | 274° |
| 2026-04-20 12:29 | 20.92675 | -89.48186 | 34106 ft | 432 kts | 274° |
| 2026-04-20 12:29 | 20.93092 | -89.54609 | 34108 ft | 432 kts | 274° |
| 2026-04-20 12:30 | 20.93459 | -89.57772 | 34087 ft | 432 kts | 285° |
| 2026-04-20 12:30 | 20.94616 | -89.60758 | 34123 ft | 433 kts | 299° |
| 2026-04-20 12:30 | 20.96428 | -89.63327 | 34114 ft | 437 kts | 312° |
| 2026-04-20 12:30 | 20.98767 | -89.65393 | 34123 ft | 443 kts | 323° |
| 2026-04-20 12:31 | 21.01554 | -89.66903 | 34099 ft | 452 kts | 338° |
| 2026-04-20 12:31 | 21.04635 | -89.67662 | 34129 ft | 457 kts | 345° |
| 2026-04-20 12:31 | 21.10925 | -89.68638 | 34109 ft | 460 kts | 347° |
| 2026-04-20 12:32 | 21.17264 | -89.69651 | 34103 ft | 460 kts | 346° |
| 2026-04-20 12:32 | 21.23537 | -89.70980 | 34074 ft | 452 kts | 332° |
| 2026-04-20 12:33 | 21.26219 | -89.72608 | 34112 ft | 441 kts | 317° |
| 2026-04-20 12:33 | 21.28425 | -89.74826 | 34099 ft | 435 kts | 306° |
| 2026-04-20 12:33 | 21.30087 | -89.77543 | 34102 ft | 430 kts | 294° |
| 2026-04-20 12:33 | 21.31371 | -89.80430 | 34106 ft | 430 kts | 292° |
| 2026-04-20 12:34 | 21.33809 | -89.86281 | 34098 ft | 431 kts | 292° |
| 2026-04-20 12:34 | 21.36256 | -89.92143 | 34097 ft | 432 kts | 292° |
| 2026-04-20 12:35 | 21.38755 | -89.98022 | 34098 ft | 433 kts | 292° |
| 2026-04-20 12:35 | 21.41271 | -90.03896 | 34097 ft | 433 kts | 292° |
| 2026-04-20 12:36 | 21.43791 | -90.09776 | 34102 ft | 432 kts | 292° |
| 2026-04-20 12:36 | 21.46292 | -90.15619 | 34104 ft | 432 kts | 292° |
| 2026-04-20 12:37 | 21.48793 | -90.21471 | 34104 ft | 432 kts | 292° |
| 2026-04-20 12:37 | 21.51305 | -90.27356 | 34104 ft | 431 kts | 292° |
| 2026-04-20 12:38 | 21.53797 | -90.33202 | 34108 ft | 431 kts | 292° |
| 2026-04-20 12:38 | 21.56278 | -90.39027 | 34108 ft | 431 kts | 292° |
| 2026-04-20 12:39 | 21.60012 | -90.47809 | 34108 ft | 430 kts | 292° |
| 2026-04-20 12:40 | 21.62501 | -90.53670 | 34108 ft | 430 kts | 292° |
| 2026-04-20 12:40 | 21.64968 | -90.59487 | 34111 ft | 430 kts | 292° |
| 2026-04-20 12:41 | 21.67453 | -90.65355 | 34114 ft | 430 kts | 292° |
| 2026-04-20 12:41 | 21.69913 | -90.71170 | 34113 ft | 429 kts | 292° |
| 2026-04-20 12:42 | 21.72388 | -90.77027 | 34111 ft | 429 kts | 292° |
| 2026-04-20 12:42 | 21.74852 | -90.82865 | 34111 ft | 429 kts | 292° |
| 2026-04-20 12:43 | 21.77318 | -90.88712 | 34114 ft | 429 kts | 292° |
| 2026-04-20 12:43 | 21.79784 | -90.94584 | 34112 ft | 429 kts | 292° |
| 2026-04-20 12:44 | 21.82226 | -91.00413 | 34115 ft | 429 kts | 291° |
| 2026-04-20 12:44 | 21.84682 | -91.06282 | 34115 ft | 429 kts | 291° |
| 2026-04-20 12:45 | 21.87122 | -91.12119 | 34114 ft | 429 kts | 291° |
| 2026-04-20 12:45 | 21.89577 | -91.17998 | 34118 ft | 429 kts | 291° |
| 2026-04-20 12:46 | 21.92023 | -91.23862 | 34117 ft | 429 kts | 291° |
| 2026-04-20 12:46 | 21.94456 | -91.29701 | 34118 ft | 429 kts | 291° |
| 2026-04-20 12:47 | 21.96892 | -91.35558 | 34122 ft | 429 kts | 291° |
| 2026-04-20 12:47 | 21.99341 | -91.41450 | 34119 ft | 430 kts | 291° |
| 2026-04-20 12:48 | 22.01791 | -91.47347 | 34119 ft | 430 kts | 291° |
| 2026-04-20 12:48 | 22.04226 | -91.53215 | 34121 ft | 430 kts | 291° |
| 2026-04-20 12:49 | 22.06654 | -91.59073 | 34117 ft | 430 kts | 291° |
| 2026-04-20 12:49 | 22.09094 | -91.64968 | 34118 ft | 430 kts | 291° |
| 2026-04-20 12:50 | 22.11539 | -91.70884 | 34123 ft | 430 kts | 291° |
| 2026-04-20 12:50 | 22.13563 | -91.75785 | 34123 ft | 430 kts | 291° |
| 2026-04-20 12:51 | 22.16396 | -91.82654 | 34123 ft | 430 kts | 291° |
| 2026-04-20 12:51 | 22.18419 | -91.87566 | 34125 ft | 430 kts | 291° |
| 2026-04-20 12:52 | 22.20849 | -91.93472 | 34124 ft | 429 kts | 291° |
| 2026-04-20 12:52 | 22.23265 | -91.99351 | 34128 ft | 429 kts | 291° |
| 2026-04-20 12:53 | 22.25679 | -92.05234 | 34121 ft | 428 kts | 291° |
| 2026-04-20 12:53 | 22.28086 | -92.11105 | 34127 ft | 427 kts | 291° |
| 2026-04-20 12:54 | 22.30494 | -92.16987 | 34122 ft | 427 kts | 291° |
| 2026-04-20 12:54 | 22.32898 | -92.22865 | 34122 ft | 426 kts | 291° |
| 2026-04-20 12:55 | 22.35281 | -92.28702 | 34124 ft | 426 kts | 291° |
| 2026-04-20 12:55 | 22.37668 | -92.34553 | 34125 ft | 426 kts | 291° |
| 2026-04-20 12:56 | 22.40053 | -92.40407 | 34125 ft | 426 kts | 291° |
| 2026-04-20 12:56 | 22.42428 | -92.46245 | 34126 ft | 425 kts | 290° |
| 2026-04-20 12:57 | 22.44812 | -92.52109 | 34130 ft | 425 kts | 290° |
| 2026-04-20 12:57 | 22.47194 | -92.57970 | 34126 ft | 426 kts | 290° |
| 2026-04-20 12:58 | 22.49570 | -92.63821 | 34130 ft | 426 kts | 290° |
| 2026-04-20 12:58 | 22.51943 | -92.69675 | 34132 ft | 426 kts | 290° |
| 2026-04-20 12:59 | 22.54325 | -92.75558 | 34128 ft | 426 kts | 290° |
| 2026-04-20 12:59 | 22.56704 | -92.81440 | 34129 ft | 426 kts | 290° |
| 2026-04-20 13:00 | 22.59073 | -92.87309 | 34123 ft | 427 kts | 290° |
| 2026-04-20 13:00 | 22.61449 | -92.93198 | 34129 ft | 427 kts | 290° |
| 2026-04-20 13:01 | 22.63826 | -92.99099 | 34131 ft | 427 kts | 290° |
| 2026-04-20 13:01 | 22.66194 | -93.04983 | 34124 ft | 427 kts | 290° |
| 2026-04-20 13:02 | 22.68566 | -93.10887 | 34126 ft | 427 kts | 290° |
| 2026-04-20 13:02 | 22.70923 | -93.16760 | 34129 ft | 427 kts | 290° |
| 2026-04-20 13:03 | 22.73290 | -93.22667 | 34135 ft | 427 kts | 290° |
| 2026-04-20 13:03 | 22.75653 | -93.28569 | 34130 ft | 427 kts | 290° |
| 2026-04-20 13:04 | 22.78001 | -93.34443 | 34134 ft | 427 kts | 290° |
| 2026-04-20 13:04 | 22.80357 | -93.40341 | 34136 ft | 427 kts | 290° |
| 2026-04-20 13:05 | 22.82716 | -93.46257 | 34130 ft | 427 kts | 290° |
| 2026-04-20 13:05 | 22.85061 | -93.52144 | 34139 ft | 427 kts | 290° |
| 2026-04-20 13:06 | 22.87425 | -93.58087 | 34136 ft | 426 kts | 290° |
| 2026-04-20 13:06 | 22.89756 | -93.63954 | 34139 ft | 426 kts | 290° |
| 2026-04-20 13:07 | 22.92104 | -93.69872 | 34140 ft | 426 kts | 290° |
| 2026-04-20 13:07 | 22.94447 | -93.75785 | 34137 ft | 426 kts | 289° |
| 2026-04-20 13:08 | 22.96791 | -93.81709 | 34141 ft | 426 kts | 289° |
| 2026-04-20 13:08 | 22.99120 | -93.87600 | 34140 ft | 426 kts | 289° |
| 2026-04-20 13:09 | 23.01460 | -93.93529 | 34139 ft | 426 kts | 289° |
| 2026-04-20 13:09 | 23.03783 | -93.99420 | 34137 ft | 426 kts | 289° |
| 2026-04-20 13:10 | 23.06114 | -94.05342 | 34143 ft | 426 kts | 289° |
| 2026-04-20 13:10 | 23.08439 | -94.11254 | 34143 ft | 425 kts | 289° |
| 2026-04-20 13:11 | 23.10752 | -94.17144 | 34146 ft | 425 kts | 289° |
| 2026-04-20 13:11 | 23.13075 | -94.23068 | 34147 ft | 425 kts | 289° |
| 2026-04-20 13:12 | 23.15397 | -94.28996 | 34147 ft | 425 kts | 289° |
| 2026-04-20 13:12 | 23.17707 | -94.34900 | 34145 ft | 425 kts | 289° |
| 2026-04-20 13:13 | 23.20020 | -94.40821 | 34148 ft | 425 kts | 289° |
| 2026-04-20 13:13 | 23.22328 | -94.46737 | 34152 ft | 425 kts | 289° |
| 2026-04-20 13:14 | 23.24624 | -94.52631 | 34149 ft | 425 kts | 289° |
| 2026-04-20 13:14 | 23.26929 | -94.58554 | 34145 ft | 425 kts | 289° |
| 2026-04-20 13:15 | 23.29233 | -94.64481 | 34147 ft | 425 kts | 289° |
| 2026-04-20 13:15 | 23.31520 | -94.70372 | 34150 ft | 425 kts | 289° |
| 2026-04-20 13:16 | 23.33815 | -94.76291 | 34152 ft | 425 kts | 289° |
| 2026-04-20 13:16 | 23.36118 | -94.82239 | 34144 ft | 425 kts | 289° |
| 2026-04-20 13:17 | 23.38401 | -94.88144 | 34148 ft | 425 kts | 289° |
| 2026-04-20 13:17 | 23.40686 | -94.94061 | 34146 ft | 424 kts | 289° |
| 2026-04-20 13:18 | 23.42967 | -94.99975 | 34152 ft | 424 kts | 288° |
| 2026-04-20 13:18 | 23.45252 | -95.05911 | 34148 ft | 424 kts | 288° |
| 2026-04-20 13:19 | 23.47541 | -95.11862 | 34152 ft | 424 kts | 288° |
| 2026-04-20 13:19 | 23.49814 | -95.17779 | 34153 ft | 424 kts | 288° |
| 2026-04-20 13:20 | 23.52092 | -95.23718 | 34153 ft | 424 kts | 288° |
| 2026-04-20 13:20 | 23.54351 | -95.29615 | 34150 ft | 424 kts | 288° |
| 2026-04-20 13:21 | 23.56627 | -95.35565 | 34151 ft | 424 kts | 288° |
| 2026-04-20 13:21 | 23.58890 | -95.41490 | 34151 ft | 424 kts | 288° |
| 2026-04-20 13:22 | 23.61155 | -95.47427 | 34151 ft | 424 kts | 288° |
| 2026-04-20 13:22 | 23.63413 | -95.53355 | 34148 ft | 423 kts | 288° |
| 2026-04-20 13:23 | 23.65670 | -95.59286 | 34155 ft | 423 kts | 288° |
| 2026-04-20 13:23 | 23.67924 | -95.65217 | 34154 ft | 423 kts | 288° |
| 2026-04-20 13:24 | 23.70178 | -95.71152 | 34152 ft | 423 kts | 288° |
| 2026-04-20 13:24 | 23.72416 | -95.77057 | 34153 ft | 422 kts | 288° |
| 2026-04-20 13:25 | 23.74668 | -95.83009 | 34152 ft | 422 kts | 288° |
| 2026-04-20 13:25 | 23.76905 | -95.88926 | 34154 ft | 422 kts | 288° |
| 2026-04-20 13:26 | 23.79129 | -95.94820 | 34155 ft | 421 kts | 288° |
| 2026-04-20 13:26 | 23.81361 | -96.00741 | 34157 ft | 421 kts | 288° |
| 2026-04-20 13:27 | 23.83595 | -96.06675 | 34157 ft | 421 kts | 288° |
| 2026-04-20 13:27 | 23.85811 | -96.12569 | 34159 ft | 421 kts | 287° |
| 2026-04-20 13:28 | 23.88028 | -96.18477 | 34157 ft | 421 kts | 287° |
| 2026-04-20 13:28 | 23.90253 | -96.24410 | 34160 ft | 421 kts | 287° |
| 2026-04-20 13:29 | 23.92468 | -96.30328 | 34161 ft | 421 kts | 287° |
| 2026-04-20 13:29 | 23.94686 | -96.36259 | 34164 ft | 421 kts | 287° |
| 2026-04-20 13:30 | 23.96885 | -96.42151 | 34163 ft | 420 kts | 287° |
| 2026-04-20 13:30 | 23.99102 | -96.48098 | 34163 ft | 420 kts | 287° |
| 2026-04-20 13:31 | 24.01295 | -96.53988 | 34170 ft | 420 kts | 287° |
| 2026-04-20 13:31 | 24.03511 | -96.59948 | 34173 ft | 420 kts | 287° |
| 2026-04-20 13:32 | 24.05700 | -96.65844 | 34178 ft | 420 kts | 287° |
| 2026-04-20 13:32 | 24.07897 | -96.71772 | 34176 ft | 420 kts | 287° |
| 2026-04-20 13:33 | 24.10092 | -96.77706 | 34182 ft | 420 kts | 287° |
| 2026-04-20 13:33 | 24.12283 | -96.83640 | 34179 ft | 420 kts | 287° |
| 2026-04-20 13:34 | 24.14468 | -96.89563 | 34187 ft | 420 kts | 287° |
| 2026-04-20 13:34 | 24.16287 | -96.94502 | 34186 ft | 421 kts | 287° |
| 2026-04-20 13:35 | 24.18471 | -97.00438 | 34188 ft | 420 kts | 287° |
| 2026-04-20 13:35 | 24.20656 | -97.06385 | 34192 ft | 420 kts | 287° |
| 2026-04-20 13:36 | 24.22839 | -97.12335 | 34189 ft | 421 kts | 287° |
| 2026-04-20 13:36 | 24.25023 | -97.18297 | 34193 ft | 421 kts | 286° |
| 2026-04-20 13:37 | 24.27201 | -97.24251 | 34195 ft | 421 kts | 286° |
| 2026-04-20 13:37 | 24.29368 | -97.30186 | 34205 ft | 421 kts | 286° |
| 2026-04-20 13:38 | 24.31550 | -97.36166 | 34204 ft | 421 kts | 286° |
| 2026-04-20 13:38 | 24.33723 | -97.42129 | 34207 ft | 422 kts | 286° |
| 2026-04-20 13:39 | 24.35894 | -97.48097 | 34206 ft | 422 kts | 286° |
| 2026-04-20 13:39 | 24.38063 | -97.54070 | 34210 ft | 422 kts | 286° |
| 2026-04-20 13:40 | 24.40224 | -97.60028 | 34207 ft | 422 kts | 286° |
| 2026-04-20 13:40 | 24.42392 | -97.66016 | 34214 ft | 422 kts | 286° |
| 2026-04-20 13:41 | 24.44557 | -97.72003 | 34219 ft | 422 kts | 286° |
| 2026-04-20 13:41 | 24.46707 | -97.77959 | 34218 ft | 421 kts | 285° |
| 2026-04-20 13:42 | 24.48869 | -97.83956 | 34217 ft | 421 kts | 285° |
| 2026-04-20 13:42 | 24.52101 | -97.92937 | 34229 ft | 421 kts | 285° |
| 2026-04-20 13:43 | 24.54241 | -97.98894 | 34231 ft | 421 kts | 285° |
| 2026-04-20 13:43 | 24.56391 | -98.04887 | 34237 ft | 420 kts | 285° |
| 2026-04-20 13:44 | 24.58522 | -98.10836 | 34242 ft | 420 kts | 285° |
| 2026-04-20 13:44 | 24.60664 | -98.16824 | 34233 ft | 421 kts | 285° |
| 2026-04-20 13:45 | 24.62802 | -98.22809 | 34232 ft | 420 kts | 285° |
| 2026-04-20 13:45 | 24.64931 | -98.28779 | 34237 ft | 420 kts | 285° |
| 2026-04-20 13:46 | 24.67057 | -98.34748 | 34240 ft | 420 kts | 285° |
| 2026-04-20 13:46 | 24.69188 | -98.40739 | 34250 ft | 420 kts | 285° |
| 2026-04-20 13:47 | 24.71318 | -98.46739 | 34239 ft | 420 kts | 285° |
| 2026-04-20 13:47 | 24.73433 | -98.52705 | 34248 ft | 420 kts | 285° |
| 2026-04-20 13:48 | 24.75557 | -98.58701 | 34249 ft | 420 kts | 285° |
| 2026-04-20 13:48 | 24.77670 | -98.64679 | 34247 ft | 420 kts | 285° |
| 2026-04-20 13:49 | 24.79795 | -98.70698 | 34249 ft | 420 kts | 285° |
| 2026-04-20 13:49 | 24.81897 | -98.76661 | 34250 ft | 420 kts | 285° |
| 2026-04-20 13:50 | 24.83997 | -98.82628 | 34247 ft | 419 kts | 285° |
| 2026-04-20 13:50 | 24.86105 | -98.88624 | 34255 ft | 418 kts | 285° |
| 2026-04-20 13:51 | 24.88203 | -98.94603 | 34264 ft | 418 kts | 285° |
| 2026-04-20 13:51 | 24.90303 | -99.00599 | 34258 ft | 419 kts | 285° |
| 2026-04-20 13:52 | 24.92394 | -99.06571 | 34257 ft | 420 kts | 286° |
| 2026-04-20 13:52 | 24.95280 | -99.12284 | 34272 ft | 433 kts | 300° |
| 2026-04-20 13:53 | 24.99313 | -99.17265 | 34272 ft | 440 kts | 306° |
| 2026-04-20 13:53 | 25.03540 | -99.22188 | 34272 ft | 441 kts | 306° |
| 2026-04-20 13:54 | 25.07738 | -99.27114 | 34270 ft | 441 kts | 306° |
| 2026-04-20 13:54 | 25.11921 | -99.32067 | 34267 ft | 441 kts | 306° |
| 2026-04-20 13:55 | 25.16113 | -99.37049 | 34271 ft | 441 kts | 306° |
| 2026-04-20 13:55 | 25.20293 | -99.42022 | 34268 ft | 441 kts | 306° |
| 2026-04-20 13:56 | 25.24468 | -99.46997 | 34263 ft | 441 kts | 306° |
| 2026-04-20 13:56 | 25.28607 | -99.51931 | 34272 ft | 440 kts | 306° |
| 2026-04-20 13:57 | 25.32782 | -99.56914 | 34269 ft | 440 kts | 306° |
| 2026-04-20 13:57 | 25.36932 | -99.61873 | 34269 ft | 439 kts | 306° |
| 2026-04-20 13:58 | 25.41088 | -99.66844 | 34266 ft | 439 kts | 306° |
| 2026-04-20 13:58 | 25.45211 | -99.71782 | 34267 ft | 438 kts | 306° |
| 2026-04-20 13:59 | 25.49356 | -99.76751 | 34271 ft | 438 kts | 306° |
| 2026-04-20 13:59 | 25.53462 | -99.81679 | 34269 ft | 437 kts | 306° |
| 2026-04-20 14:00 | 25.57585 | -99.86633 | 34270 ft | 437 kts | 306° |
| 2026-04-20 14:00 | 25.61707 | -99.91591 | 34263 ft | 437 kts | 306° |
| 2026-04-20 14:01 | 25.65825 | -99.96550 | 34266 ft | 437 kts | 306° |
| 2026-04-20 14:01 | 25.69938 | -100.01509 | 34264 ft | 436 kts | 306° |
| 2026-04-20 14:02 | 25.74041 | -100.06461 | 34258 ft | 436 kts | 306° |
| 2026-04-20 14:02 | 25.77905 | -100.11581 | 34253 ft | 428 kts | 297° |
| 2026-04-20 14:03 | 25.80742 | -100.17352 | 34279 ft | 424 kts | 292° |
| 2026-04-20 14:03 | 25.83487 | -100.23120 | 34264 ft | 425 kts | 293° |
| 2026-04-20 14:04 | 25.86269 | -100.28908 | 34268 ft | 425 kts | 293° |
| 2026-04-20 14:04 | 25.89070 | -100.34706 | 34273 ft | 425 kts | 293° |
| 2026-04-20 14:05 | 25.91851 | -100.40467 | 34259 ft | 425 kts | 293° |
| 2026-04-20 14:05 | 25.94646 | -100.46264 | 34247 ft | 422 kts | 293° |
| 2026-04-20 14:06 | 25.97407 | -100.52003 | 34262 ft | 422 kts | 293° |
| 2026-04-20 14:06 | 26.00183 | -100.57779 | 34251 ft | 424 kts | 293° |
| 2026-04-20 14:07 | 26.02947 | -100.63527 | 34248 ft | 425 kts | 293° |
| 2026-04-20 14:07 | 26.05751 | -100.69350 | 34245 ft | 426 kts | 293° |
| 2026-04-20 14:08 | 26.08553 | -100.75178 | 34242 ft | 427 kts | 293° |
| 2026-04-20 14:08 | 26.11342 | -100.80987 | 34252 ft | 427 kts | 293° |
| 2026-04-20 14:09 | 26.14151 | -100.86848 | 34248 ft | 427 kts | 293° |
| 2026-04-20 14:09 | 26.16927 | -100.92667 | 34253 ft | 427 kts | 293° |
| 2026-04-20 14:10 | 26.19717 | -100.98529 | 34248 ft | 427 kts | 293° |
| 2026-04-20 14:10 | 26.22491 | -101.04363 | 34253 ft | 427 kts | 293° |
| 2026-04-20 14:11 | 26.25272 | -101.10214 | 34241 ft | 426 kts | 293° |
| 2026-04-20 14:11 | 26.28045 | -101.16054 | 34239 ft | 426 kts | 293° |
| 2026-04-20 14:12 | 26.30798 | -101.21861 | 34231 ft | 425 kts | 293° |
| 2026-04-20 14:12 | 26.33558 | -101.27690 | 34215 ft | 423 kts | 293° |
| 2026-04-20 14:13 | 26.36304 | -101.33497 | 34239 ft | 423 kts | 293° |
| 2026-04-20 14:13 | 26.39031 | -101.39275 | 34230 ft | 423 kts | 293° |
| 2026-04-20 14:14 | 26.41771 | -101.45087 | 34217 ft | 424 kts | 293° |
| 2026-04-20 14:14 | 26.44505 | -101.50893 | 34246 ft | 422 kts | 293° |
| 2026-04-20 14:15 | 26.47240 | -101.56709 | 34217 ft | 424 kts | 293° |
| 2026-04-20 14:15 | 26.49992 | -101.62571 | 34236 ft | 424 kts | 293° |
| 2026-04-20 14:16 | 26.52713 | -101.68372 | 34235 ft | 424 kts | 293° |
| 2026-04-20 14:16 | 26.55461 | -101.74242 | 34237 ft | 425 kts | 293° |
| 2026-04-20 14:17 | 26.58184 | -101.80063 | 34219 ft | 424 kts | 293° |
| 2026-04-20 14:17 | 26.60913 | -101.85907 | 34231 ft | 424 kts | 293° |
| 2026-04-20 14:18 | 26.63634 | -101.91738 | 34229 ft | 423 kts | 293° |
| 2026-04-20 14:18 | 26.66340 | -101.97562 | 34233 ft | 422 kts | 293° |
| 2026-04-20 14:19 | 26.69032 | -102.03375 | 34239 ft | 421 kts | 293° |
| 2026-04-20 14:19 | 26.71287 | -102.08251 | 34232 ft | 422 kts | 293° |
| 2026-04-20 14:20 | 26.73984 | -102.14089 | 34244 ft | 423 kts | 293° |
| 2026-04-20 14:20 | 26.76662 | -102.19896 | 34235 ft | 422 kts | 293° |
| 2026-04-20 14:21 | 26.79355 | -102.25737 | 34222 ft | 422 kts | 293° |
| 2026-04-20 14:21 | 26.82044 | -102.31582 | 34223 ft | 422 kts | 293° |
| 2026-04-20 14:22 | 26.84727 | -102.37420 | 34211 ft | 422 kts | 293° |
| 2026-04-20 14:22 | 26.87403 | -102.43251 | 34210 ft | 421 kts | 293° |
| 2026-04-20 14:23 | 26.90079 | -102.49090 | 34206 ft | 421 kts | 292° |
| 2026-04-20 14:23 | 26.92759 | -102.54946 | 34203 ft | 421 kts | 292° |
| 2026-04-20 14:24 | 26.95417 | -102.60761 | 34193 ft | 421 kts | 292° |
| 2026-04-20 14:24 | 26.98090 | -102.66618 | 34191 ft | 421 kts | 292° |
| 2026-04-20 14:25 | 27.00747 | -102.72448 | 34179 ft | 421 kts | 292° |
| 2026-04-20 14:25 | 27.03411 | -102.78300 | 34178 ft | 419 kts | 292° |
| 2026-04-20 14:26 | 27.06058 | -102.84125 | 34189 ft | 419 kts | 292° |
| 2026-04-20 14:26 | 27.08706 | -102.89959 | 34172 ft | 420 kts | 292° |
| 2026-04-20 14:27 | 27.11360 | -102.95815 | 34168 ft | 420 kts | 292° |
| 2026-04-20 14:27 | 27.14010 | -103.01670 | 34170 ft | 421 kts | 292° |
| 2026-04-20 14:28 | 27.16656 | -103.07524 | 34165 ft | 421 kts | 292° |
| 2026-04-20 14:28 | 27.19296 | -103.13372 | 34171 ft | 422 kts | 292° |
| 2026-04-20 14:29 | 27.21950 | -103.19261 | 34168 ft | 422 kts | 292° |
| 2026-04-20 14:29 | 27.24600 | -103.25149 | 34169 ft | 423 kts | 292° |
| 2026-04-20 14:30 | 27.27255 | -103.31056 | 34168 ft | 423 kts | 292° |
| 2026-04-20 14:30 | 27.29898 | -103.36944 | 34155 ft | 421 kts | 292° |
| 2026-04-20 14:31 | 27.32530 | -103.42816 | 34179 ft | 422 kts | 292° |
| 2026-04-20 14:31 | 27.35168 | -103.48710 | 34169 ft | 422 kts | 292° |
| 2026-04-20 14:32 | 27.37809 | -103.54619 | 34175 ft | 422 kts | 291° |
| 2026-04-20 14:32 | 27.40445 | -103.60525 | 34183 ft | 423 kts | 291° |
| 2026-04-20 14:33 | 27.43084 | -103.66446 | 34181 ft | 423 kts | 291° |
| 2026-04-20 14:33 | 27.45720 | -103.72370 | 34184 ft | 423 kts | 291° |
| 2026-04-20 14:34 | 27.48342 | -103.78270 | 34168 ft | 423 kts | 291° |
| 2026-04-20 14:34 | 27.50972 | -103.84195 | 34181 ft | 423 kts | 291° |
| 2026-04-20 14:35 | 27.53603 | -103.90133 | 34175 ft | 423 kts | 291° |
| 2026-04-20 14:35 | 27.56229 | -103.96069 | 34176 ft | 424 kts | 291° |
| 2026-04-20 14:36 | 27.58861 | -104.02025 | 34172 ft | 424 kts | 291° |
| 2026-04-20 14:36 | 27.61476 | -104.07952 | 34175 ft | 424 kts | 291° |
| 2026-04-20 14:37 | 27.64106 | -104.13922 | 34169 ft | 424 kts | 291° |
| 2026-04-20 14:37 | 27.66721 | -104.19867 | 34175 ft | 424 kts | 291° |
| 2026-04-20 14:38 | 27.69342 | -104.25833 | 34165 ft | 424 kts | 291° |
| 2026-04-20 14:38 | 27.71957 | -104.31778 | 34161 ft | 425 kts | 291° |
| 2026-04-20 14:39 | 27.74663 | -104.37748 | 34169 ft | 425 kts | 292° |
| 2026-04-20 14:39 | 27.77371 | -104.43680 | 34159 ft | 425 kts | 292° |
| 2026-04-20 14:40 | 27.80072 | -104.49624 | 34160 ft | 425 kts | 292° |
| 2026-04-20 14:40 | 27.82765 | -104.55574 | 34160 ft | 425 kts | 292° |
| 2026-04-20 14:41 | 27.85443 | -104.61504 | 34153 ft | 426 kts | 292° |
| 2026-04-20 14:41 | 27.88139 | -104.67481 | 34156 ft | 425 kts | 292° |
| 2026-04-20 14:42 | 27.90818 | -104.73429 | 34148 ft | 426 kts | 291° |
| 2026-04-20 14:42 | 27.93503 | -104.79401 | 34148 ft | 426 kts | 291° |
| 2026-04-20 14:43 | 27.96188 | -104.85380 | 34145 ft | 426 kts | 291° |
| 2026-04-20 14:43 | 27.98857 | -104.91331 | 34142 ft | 426 kts | 291° |
| 2026-04-20 14:44 | 28.01522 | -104.97325 | 34140 ft | 426 kts | 291° |
| 2026-04-20 14:44 | 28.04168 | -105.03326 | 34143 ft | 425 kts | 291° |
| 2026-04-20 14:45 | 28.06804 | -105.09319 | 34136 ft | 425 kts | 291° |
| 2026-04-20 14:45 | 28.09442 | -105.15317 | 34136 ft | 425 kts | 291° |
| 2026-04-20 14:46 | 28.12067 | -105.21293 | 34136 ft | 425 kts | 291° |
| 2026-04-20 14:46 | 28.14698 | -105.27291 | 34137 ft | 425 kts | 291° |
| 2026-04-20 14:47 | 28.17326 | -105.33290 | 34133 ft | 426 kts | 291° |
| 2026-04-20 14:48 | 28.21280 | -105.42333 | 34138 ft | 426 kts | 291° |
| 2026-04-20 14:48 | 28.23903 | -105.48343 | 34137 ft | 427 kts | 291° |
| 2026-04-20 14:49 | 28.26535 | -105.54382 | 34133 ft | 427 kts | 291° |
| 2026-04-20 14:49 | 28.29165 | -105.60427 | 34133 ft | 427 kts | 291° |
| 2026-04-20 14:50 | 28.31793 | -105.66476 | 34140 ft | 427 kts | 291° |
| 2026-04-20 14:50 | 28.34402 | -105.72490 | 34152 ft | 427 kts | 291° |
| 2026-04-20 14:51 | 28.37022 | -105.78539 | 34142 ft | 427 kts | 291° |
| 2026-04-20 14:51 | 28.39643 | -105.84600 | 34162 ft | 428 kts | 291° |
| 2026-04-20 14:52 | 28.42266 | -105.90674 | 34177 ft | 428 kts | 291° |
| 2026-04-20 14:52 | 28.44879 | -105.96732 | 34194 ft | 428 kts | 291° |
| 2026-04-20 14:53 | 28.47505 | -106.02831 | 34199 ft | 427 kts | 291° |
| 2026-04-20 14:53 | 28.50101 | -106.08872 | 34212 ft | 427 kts | 291° |
| 2026-04-20 14:54 | 28.52718 | -106.14970 | 34206 ft | 428 kts | 291° |
| 2026-04-20 14:54 | 28.55324 | -106.21051 | 34181 ft | 428 kts | 291° |
| 2026-04-20 14:55 | 28.57917 | -106.27112 | 34169 ft | 428 kts | 291° |
| 2026-04-20 14:55 | 28.60533 | -106.33233 | 34157 ft | 429 kts | 291° |
| 2026-04-20 14:56 | 28.63141 | -106.39347 | 34150 ft | 429 kts | 291° |
| 2026-04-20 14:56 | 28.65741 | -106.45452 | 34152 ft | 429 kts | 291° |
| 2026-04-20 14:57 | 28.68345 | -106.51575 | 34147 ft | 430 kts | 291° |
| 2026-04-20 14:57 | 28.70935 | -106.57676 | 34152 ft | 430 kts | 291° |
| 2026-04-20 14:58 | 28.73541 | -106.63824 | 34168 ft | 430 kts | 291° |
| 2026-04-20 14:58 | 28.76135 | -106.69953 | 34173 ft | 430 kts | 291° |
| 2026-04-20 14:59 | 28.78726 | -106.76083 | 34159 ft | 430 kts | 291° |
| 2026-04-20 14:59 | 28.81345 | -106.82213 | 34163 ft | 430 kts | 292° |
| 2026-04-20 15:00 | 28.83982 | -106.88334 | 34168 ft | 429 kts | 292° |
| 2026-04-20 15:00 | 28.86609 | -106.94449 | 34169 ft | 429 kts | 292° |
| 2026-04-20 15:01 | 28.89232 | -107.00575 | 34170 ft | 429 kts | 292° |
| 2026-04-20 15:01 | 28.91849 | -107.06701 | 34168 ft | 429 kts | 292° |
| 2026-04-20 15:02 | 28.94446 | -107.12789 | 34169 ft | 429 kts | 292° |
| 2026-04-20 15:02 | 28.97051 | -107.18904 | 34167 ft | 428 kts | 292° |
| 2026-04-20 15:03 | 28.99658 | -107.25032 | 34175 ft | 428 kts | 292° |
| 2026-04-20 15:03 | 29.01837 | -107.30152 | 34171 ft | 429 kts | 292° |
| 2026-04-20 15:04 | 29.04435 | -107.36262 | 34172 ft | 429 kts | 292° |
| 2026-04-20 15:04 | 29.07041 | -107.42400 | 34160 ft | 429 kts | 292° |
| 2026-04-20 15:05 | 29.09641 | -107.48536 | 34168 ft | 429 kts | 292° |
| 2026-04-20 15:05 | 29.12236 | -107.54668 | 34165 ft | 429 kts | 292° |
| 2026-04-20 15:06 | 29.14834 | -107.60825 | 34160 ft | 429 kts | 292° |
| 2026-04-20 15:06 | 29.17409 | -107.66969 | 34162 ft | 429 kts | 292° |
| 2026-04-20 15:07 | 29.19994 | -107.73153 | 34160 ft | 429 kts | 292° |
| 2026-04-20 15:07 | 29.22567 | -107.79313 | 34161 ft | 429 kts | 292° |
| 2026-04-20 15:08 | 29.25129 | -107.85457 | 34159 ft | 429 kts | 292° |
| 2026-04-20 15:08 | 29.27701 | -107.91634 | 34155 ft | 429 kts | 292° |
| 2026-04-20 15:09 | 29.30263 | -107.97796 | 34156 ft | 429 kts | 292° |
| 2026-04-20 15:09 | 29.32826 | -108.03969 | 34150 ft | 429 kts | 292° |
| 2026-04-20 15:10 | 29.35386 | -108.10148 | 34150 ft | 429 kts | 292° |
| 2026-04-20 15:10 | 29.37937 | -108.16312 | 34143 ft | 429 kts | 292° |
| 2026-04-20 15:11 | 29.40494 | -108.22504 | 34143 ft | 429 kts | 292° |
| 2026-04-20 15:11 | 29.43046 | -108.28694 | 34136 ft | 428 kts | 292° |
| 2026-04-20 15:12 | 29.45579 | -108.34847 | 34105 ft | 427 kts | 292° |
| 2026-04-20 15:12 | 29.48103 | -108.40988 | 34136 ft | 425 kts | 292° |
| 2026-04-20 15:13 | 29.50631 | -108.47144 | 34115 ft | 426 kts | 292° |
| 2026-04-20 15:13 | 29.53159 | -108.53310 | 34083 ft | 427 kts | 292° |
| 2026-04-20 15:14 | 29.55690 | -108.59471 | 34113 ft | 428 kts | 292° |
| 2026-04-20 15:14 | 29.58230 | -108.65659 | 34072 ft | 429 kts | 292° |
| 2026-04-20 15:15 | 29.60779 | -108.71882 | 34098 ft | 429 kts | 292° |
| 2026-04-20 15:15 | 29.63304 | -108.78060 | 34080 ft | 429 kts | 292° |
| 2026-04-20 15:16 | 29.65843 | -108.84286 | 34076 ft | 431 kts | 292° |
| 2026-04-20 15:16 | 29.68387 | -108.90531 | 34059 ft | 430 kts | 292° |
| 2026-04-20 15:17 | 29.70926 | -108.96773 | 34067 ft | 431 kts | 292° |
| 2026-04-20 15:17 | 29.73463 | -109.03021 | 34064 ft | 431 kts | 292° |
| 2026-04-20 15:18 | 29.75986 | -109.09247 | 34062 ft | 430 kts | 292° |
| 2026-04-20 15:18 | 29.78513 | -109.15493 | 34052 ft | 430 kts | 292° |
| 2026-04-20 15:19 | 29.81033 | -109.21730 | 34050 ft | 429 kts | 292° |
| 2026-04-20 15:19 | 29.83536 | -109.27936 | 34048 ft | 428 kts | 292° |
| 2026-04-20 15:20 | 29.86050 | -109.34182 | 34042 ft | 428 kts | 292° |
| 2026-04-20 15:20 | 29.88542 | -109.40382 | 34046 ft | 427 kts | 292° |
| 2026-04-20 15:21 | 29.91032 | -109.46587 | 34040 ft | 426 kts | 292° |
| 2026-04-20 15:21 | 29.93519 | -109.52793 | 34044 ft | 425 kts | 292° |
| 2026-04-20 15:22 | 29.95988 | -109.58971 | 34049 ft | 426 kts | 292° |
| 2026-04-20 15:22 | 29.98458 | -109.65175 | 34040 ft | 426 kts | 292° |
| 2026-04-20 15:23 | 30.00925 | -109.71380 | 34046 ft | 426 kts | 292° |
| 2026-04-20 15:23 | 30.03395 | -109.77605 | 34038 ft | 426 kts | 292° |
| 2026-04-20 15:24 | 30.05854 | -109.83813 | 34035 ft | 425 kts | 292° |
| 2026-04-20 15:24 | 30.08295 | -109.89983 | 34045 ft | 424 kts | 292° |
| 2026-04-20 15:25 | 30.10753 | -109.96208 | 34040 ft | 424 kts | 292° |
| 2026-04-20 15:25 | 30.13196 | -110.02406 | 34040 ft | 424 kts | 292° |
| 2026-04-20 15:26 | 30.15625 | -110.08578 | 34043 ft | 424 kts | 292° |
| 2026-04-20 15:26 | 30.18064 | -110.14787 | 34046 ft | 425 kts | 292° |
| 2026-04-20 15:27 | 30.20503 | -110.21007 | 34034 ft | 425 kts | 292° |
| 2026-04-20 15:27 | 30.22947 | -110.27249 | 34035 ft | 425 kts | 292° |
| 2026-04-20 15:28 | 30.25381 | -110.33476 | 34029 ft | 425 kts | 292° |
| 2026-04-20 15:28 | 30.27794 | -110.39659 | 34020 ft | 424 kts | 292° |
| 2026-04-20 15:29 | 30.30224 | -110.45899 | 34012 ft | 424 kts | 292° |
| 2026-04-20 15:29 | 30.32647 | -110.52128 | 34013 ft | 423 kts | 292° |
| 2026-04-20 15:30 | 30.35061 | -110.58347 | 34003 ft | 423 kts | 292° |
| 2026-04-20 15:30 | 30.37451 | -110.64515 | 34006 ft | 422 kts | 292° |
| 2026-04-20 15:31 | 30.39853 | -110.70724 | 33995 ft | 422 kts | 292° |
| 2026-04-20 15:31 | 30.42247 | -110.76923 | 33990 ft | 421 kts | 292° |
| 2026-04-20 15:32 | 30.44635 | -110.83118 | 34000 ft | 420 kts | 292° |
| 2026-04-20 15:32 | 30.47014 | -110.89300 | 33990 ft | 420 kts | 292° |
| 2026-04-20 15:33 | 30.49395 | -110.95495 | 33998 ft | 421 kts | 292° |
| 2026-04-20 15:33 | 30.51775 | -111.01698 | 33983 ft | 421 kts | 292° |
| 2026-04-20 15:34 | 30.54154 | -111.07897 | 33991 ft | 421 kts | 292° |
| 2026-04-20 15:34 | 30.56529 | -111.14095 | 33981 ft | 421 kts | 292° |
| 2026-04-20 15:35 | 30.58910 | -111.20324 | 33989 ft | 421 kts | 292° |
| 2026-04-20 15:35 | 30.61284 | -111.26543 | 33983 ft | 421 kts | 292° |
| 2026-04-20 15:36 | 30.63637 | -111.32719 | 33985 ft | 421 kts | 292° |
| 2026-04-20 15:36 | 30.66015 | -111.38974 | 33984 ft | 421 kts | 292° |
| 2026-04-20 15:37 | 30.68376 | -111.45191 | 33983 ft | 421 kts | 292° |
| 2026-04-20 15:37 | 30.70722 | -111.51381 | 33990 ft | 420 kts | 292° |
| 2026-04-20 15:38 | 30.73077 | -111.57607 | 33981 ft | 421 kts | 292° |
| 2026-04-20 15:38 | 30.75430 | -111.63837 | 33984 ft | 421 kts | 292° |
| 2026-04-20 15:39 | 30.77779 | -111.70069 | 33978 ft | 421 kts | 292° |
| 2026-04-20 15:39 | 30.80123 | -111.76297 | 33984 ft | 421 kts | 292° |
| 2026-04-20 15:40 | 30.82468 | -111.82538 | 33981 ft | 421 kts | 292° |
| 2026-04-20 15:40 | 30.84799 | -111.88753 | 33985 ft | 420 kts | 292° |
| 2026-04-20 15:41 | 30.87132 | -111.94987 | 33987 ft | 420 kts | 292° |
| 2026-04-20 15:41 | 30.89476 | -112.01259 | 33983 ft | 420 kts | 292° |
| 2026-04-20 15:42 | 30.91791 | -112.07467 | 33990 ft | 420 kts | 292° |
| 2026-04-20 15:42 | 30.94130 | -112.13746 | 33992 ft | 421 kts | 292° |
| 2026-04-20 15:43 | 30.96452 | -112.19994 | 33993 ft | 421 kts | 293° |
| 2026-04-20 15:43 | 30.98772 | -112.26246 | 33995 ft | 422 kts | 293° |
| 2026-04-20 15:44 | 31.01100 | -112.32533 | 33986 ft | 423 kts | 293° |
| 2026-04-20 15:44 | 31.03429 | -112.38831 | 33990 ft | 422 kts | 293° |
| 2026-04-20 15:45 | 31.05750 | -112.45121 | 33991 ft | 422 kts | 293° |
| 2026-04-20 15:45 | 31.08074 | -112.51431 | 33997 ft | 422 kts | 293° |
| 2026-04-20 15:46 | 31.10388 | -112.57722 | 33993 ft | 423 kts | 293° |
| 2026-04-20 15:46 | 31.12697 | -112.64013 | 33993 ft | 424 kts | 293° |
| 2026-04-20 15:47 | 31.15013 | -112.70334 | 33992 ft | 424 kts | 293° |
| 2026-04-20 15:47 | 31.17337 | -112.76689 | 33996 ft | 425 kts | 293° |
| 2026-04-20 15:48 | 31.19653 | -112.83035 | 33994 ft | 425 kts | 293° |
| 2026-04-20 15:48 | 31.21974 | -112.89404 | 33995 ft | 426 kts | 293° |
| 2026-04-20 15:49 | 31.24282 | -112.95750 | 33993 ft | 426 kts | 293° |
| 2026-04-20 15:49 | 31.26599 | -113.02132 | 33998 ft | 427 kts | 293° |
| 2026-04-20 15:50 | 31.28540 | -113.07489 | 33998 ft | 428 kts | 293° |
| 2026-04-20 15:50 | 31.30849 | -113.13870 | 33998 ft | 429 kts | 293° |
| 2026-04-20 15:51 | 31.33179 | -113.20323 | 34000 ft | 429 kts | 293° |
| 2026-04-20 15:51 | 31.35490 | -113.26734 | 34002 ft | 430 kts | 293° |
| 2026-04-20 15:52 | 31.38208 | -113.32960 | 34005 ft | 430 kts | 303° |
| 2026-04-20 15:52 | 31.41530 | -113.38805 | 33997 ft | 431 kts | 303° |
| 2026-04-20 15:53 | 31.46522 | -113.47581 | 33997 ft | 432 kts | 303° |
| 2026-04-20 15:53 | 31.49825 | -113.53455 | 33996 ft | 433 kts | 303° |
| 2026-04-20 15:54 | 31.53149 | -113.59392 | 33990 ft | 434 kts | 303° |
| 2026-04-20 15:54 | 31.56443 | -113.65289 | 33987 ft | 434 kts | 303° |
| 2026-04-20 15:55 | 31.59766 | -113.71244 | 33990 ft | 435 kts | 303° |
| 2026-04-20 15:55 | 31.63054 | -113.77146 | 33988 ft | 435 kts | 303° |
| 2026-04-20 15:56 | 31.66381 | -113.83129 | 33988 ft | 436 kts | 303° |
| 2026-04-20 15:56 | 31.69699 | -113.89102 | 33982 ft | 437 kts | 303° |
| 2026-04-20 15:57 | 31.73007 | -113.95068 | 33989 ft | 437 kts | 303° |
| 2026-04-20 15:57 | 31.76336 | -114.01081 | 33978 ft | 438 kts | 303° |
| 2026-04-20 15:58 | 31.79651 | -114.07078 | 33982 ft | 438 kts | 303° |
| 2026-04-20 15:58 | 31.82954 | -114.13062 | 33983 ft | 439 kts | 303° |
| 2026-04-20 15:59 | 31.86281 | -114.19100 | 33986 ft | 439 kts | 303° |
| 2026-04-20 15:59 | 31.89612 | -114.25154 | 33980 ft | 440 kts | 303° |
| 2026-04-20 16:00 | 31.92936 | -114.31204 | 33975 ft | 440 kts | 303° |
| 2026-04-20 16:00 | 31.96254 | -114.37255 | 33981 ft | 440 kts | 303° |
| 2026-04-20 16:01 | 31.99574 | -114.43318 | 33975 ft | 441 kts | 303° |
| 2026-04-20 16:01 | 32.02889 | -114.49382 | 33974 ft | 441 kts | 303° |
| 2026-04-20 16:02 | 32.06214 | -114.55473 | 33970 ft | 442 kts | 302° |
| 2026-04-20 16:02 | 32.09518 | -114.61537 | 33972 ft | 442 kts | 302° |
| 2026-04-20 16:03 | 32.12859 | -114.67676 | 33969 ft | 443 kts | 302° |
| 2026-04-20 16:03 | 32.16169 | -114.73771 | 33965 ft | 443 kts | 302° |
| 2026-04-20 16:04 | 32.19493 | -114.79900 | 33965 ft | 444 kts | 302° |
| 2026-04-20 16:04 | 32.22822 | -114.86049 | 33967 ft | 445 kts | 302° |
| 2026-04-20 16:05 | 32.26155 | -114.92215 | 33971 ft | 445 kts | 302° |
| 2026-04-20 16:05 | 32.29480 | -114.98377 | 33969 ft | 446 kts | 302° |
| 2026-04-20 16:06 | 32.32835 | -115.04603 | 33969 ft | 447 kts | 302° |
| 2026-04-20 16:06 | 32.36158 | -115.10776 | 33972 ft | 448 kts | 302° |
| 2026-04-20 16:07 | 32.39512 | -115.17008 | 33973 ft | 448 kts | 302° |
| 2026-04-20 16:07 | 32.42848 | -115.23217 | 33981 ft | 449 kts | 302° |
| 2026-04-20 16:08 | 32.46202 | -115.29474 | 33980 ft | 449 kts | 302° |
| 2026-04-20 16:08 | 32.49542 | -115.35714 | 33983 ft | 450 kts | 301° |
| 2026-04-20 16:09 | 32.52895 | -115.41988 | 33983 ft | 450 kts | 301° |
| 2026-04-20 16:09 | 32.56242 | -115.48263 | 33981 ft | 451 kts | 301° |
| 2026-04-20 16:10 | 32.59577 | -115.54525 | 33975 ft | 451 kts | 301° |
| 2026-04-20 16:10 | 32.62920 | -115.60814 | 33990 ft | 451 kts | 301° |
| 2026-04-20 16:11 | 32.66264 | -115.67118 | 33995 ft | 451 kts | 301° |
| 2026-04-20 16:11 | 32.69595 | -115.73454 | 33993 ft | 452 kts | 301° |
| 2026-04-20 16:12 | 32.72917 | -115.79793 | 33996 ft | 452 kts | 301° |
| 2026-04-20 16:12 | 32.76235 | -115.86132 | 33996 ft | 452 kts | 301° |
| 2026-04-20 16:13 | 32.79543 | -115.92456 | 33994 ft | 453 kts | 301° |
| 2026-04-20 16:13 | 32.82829 | -115.98855 | 33997 ft | 453 kts | 300° |
| 2026-04-20 16:14 | 32.86033 | -116.05274 | 33951 ft | 445 kts | 299° |
| 2026-04-20 16:14 | 32.87590 | -116.08397 | 33555 ft | 437 kts | 299° |
| 2026-04-20 16:14 | 32.89152 | -116.11525 | 32806 ft | 437 kts | 299° |
| 2026-04-20 16:15 | 32.90700 | -116.14626 | 31836 ft | 442 kts | 299° |
| 2026-04-20 16:15 | 32.92293 | -116.17818 | 30808 ft | 448 kts | 299° |
| 2026-04-20 16:15 | 32.93884 | -116.21004 | 29791 ft | 454 kts | 299° |
| 2026-04-20 16:15 | 32.95516 | -116.24274 | 28689 ft | 458 kts | 299° |
| 2026-04-20 16:16 | 32.97135 | -116.27521 | 27668 ft | 460 kts | 299° |
| 2026-04-20 16:16 | 32.98766 | -116.30794 | 26678 ft | 461 kts | 299° |
| 2026-04-20 16:16 | 33.00397 | -116.34070 | 26321 ft | 452 kts | 299° |
| 2026-04-20 16:16 | 33.02003 | -116.37298 | 26204 ft | 456 kts | 299° |
| 2026-04-20 16:17 | 33.03639 | -116.40592 | 26089 ft | 463 kts | 299° |
| 2026-04-20 16:17 | 33.05241 | -116.43896 | 26022 ft | 465 kts | 296° |
| 2026-04-20 16:17 | 33.06643 | -116.47374 | 26022 ft | 463 kts | 292° |
| 2026-04-20 16:17 | 33.07911 | -116.50917 | 26026 ft | 462 kts | 291° |
| 2026-04-20 16:18 | 33.09147 | -116.54443 | 26026 ft | 462 kts | 291° |
| 2026-04-20 16:18 | 33.10400 | -116.57932 | 26024 ft | 461 kts | 292° |
| 2026-04-20 16:18 | 33.11689 | -116.61414 | 25797 ft | 450 kts | 292° |
| 2026-04-20 16:18 | 33.12948 | -116.64788 | 25154 ft | 445 kts | 291° |
| 2026-04-20 16:19 | 33.13889 | -116.68263 | 24290 ft | 442 kts | 280° |
| 2026-04-20 16:19 | 33.14443 | -116.71900 | 23448 ft | 441 kts | 278° |
| 2026-04-20 16:19 | 33.14911 | -116.75486 | 22629 ft | 437 kts | 277° |
| 2026-04-20 16:19 | 33.15367 | -116.79054 | 21888 ft | 432 kts | 277° |
| 2026-04-20 16:20 | 33.15836 | -116.82598 | 21152 ft | 428 kts | 278° |
| 2026-04-20 16:20 | 33.16314 | -116.86066 | 20418 ft | 425 kts | 278° |
| 2026-04-20 16:20 | 33.16810 | -116.89559 | 19687 ft | 421 kts | 278° |
| 2026-04-20 16:20 | 33.17303 | -116.92970 | 18984 ft | 419 kts | 278° |
| 2026-04-20 16:21 | 33.17802 | -116.96403 | 18265 ft | 416 kts | 278° |
| 2026-04-20 16:21 | 33.18290 | -116.99755 | 17510 ft | 413 kts | 278° |
| 2026-04-20 16:21 | 33.18780 | -117.03136 | 16804 ft | 409 kts | 278° |
| 2026-04-20 16:21 | 33.19264 | -117.06479 | 16115 ft | 405 kts | 278° |
| 2026-04-20 16:22 | 33.19737 | -117.09757 | 15599 ft | 398 kts | 278° |
| 2026-04-20 16:22 | 33.20195 | -117.12927 | 15521 ft | 380 kts | 278° |
| 2026-04-20 16:22 | 33.20637 | -117.15996 | 15424 ft | 364 kts | 277° |
| 2026-04-20 16:22 | 33.21055 | -117.18908 | 15279 ft | 352 kts | 277° |
| 2026-04-20 16:23 | 33.21465 | -117.21776 | 14907 ft | 347 kts | 277° |
| 2026-04-20 16:23 | 33.21869 | -117.24618 | 14416 ft | 347 kts | 277° |
| 2026-04-20 16:23 | 33.22270 | -117.27431 | 14151 ft | 347 kts | 277° |
| 2026-04-20 16:23 | 33.22677 | -117.30295 | 14050 ft | 348 kts | 277° |
| 2026-04-20 16:24 | 33.23090 | -117.33155 | 14007 ft | 348 kts | 278° |
| 2026-04-20 16:24 | 33.23521 | -117.35940 | 13840 ft | 342 kts | 278° |
| 2026-04-20 16:24 | 33.23960 | -117.38717 | 13402 ft | 339 kts | 278° |
| 2026-04-20 16:24 | 33.24402 | -117.41518 | 12835 ft | 340 kts | 278° |
| 2026-04-20 16:25 | 33.24837 | -117.44294 | 12342 ft | 340 kts | 278° |
| 2026-04-20 16:25 | 33.25267 | -117.47049 | 12079 ft | 338 kts | 278° |
| 2026-04-20 16:25 | 33.25696 | -117.49814 | 12027 ft | 340 kts | 278° |
| 2026-04-20 16:25 | 33.26154 | -117.52603 | 11997 ft | 338 kts | 283° |
| 2026-04-20 16:26 | 33.27126 | -117.55148 | 12014 ft | 341 kts | 300° |
| 2026-04-20 16:26 | 33.28402 | -117.57526 | 12001 ft | 344 kts | 301° |
| 2026-04-20 16:26 | 33.29729 | -117.59923 | 11993 ft | 343 kts | 301° |
| 2026-04-20 16:26 | 33.31043 | -117.62293 | 11991 ft | 343 kts | 301° |
| 2026-04-20 16:27 | 33.32350 | -117.64672 | 11978 ft | 336 kts | 301° |
| 2026-04-20 16:27 | 33.33588 | -117.66941 | 11972 ft | 320 kts | 301° |
| 2026-04-20 16:27 | 33.34768 | -117.69116 | 11961 ft | 299 kts | 300° |
| 2026-04-20 16:27 | 33.35855 | -117.71129 | 11819 ft | 284 kts | 300° |
| 2026-04-20 16:28 | 33.36915 | -117.73100 | 11425 ft | 279 kts | 300° |
| 2026-04-20 16:28 | 33.37962 | -117.75053 | 10948 ft | 279 kts | 300° |
| 2026-04-20 16:28 | 33.39008 | -117.77006 | 10496 ft | 278 kts | 300° |
| 2026-04-20 16:28 | 33.40040 | -117.78933 | 10069 ft | 276 kts | 300° |
| 2026-04-20 16:29 | 33.41079 | -117.80872 | 9591 ft | 275 kts | 300° |
| 2026-04-20 16:29 | 33.42110 | -117.82800 | 9143 ft | 273 kts | 300° |
| 2026-04-20 16:29 | 33.43122 | -117.84690 | 8701 ft | 271 kts | 300° |
| 2026-04-20 16:29 | 33.44135 | -117.86584 | 8256 ft | 269 kts | 300° |
| 2026-04-20 16:30 | 33.45135 | -117.88454 | 8050 ft | 268 kts | 300° |
| 2026-04-20 16:30 | 33.46151 | -117.90356 | 8021 ft | 270 kts | 300° |
| 2026-04-20 16:30 | 33.47172 | -117.92236 | 7999 ft | 269 kts | 305° |
| 2026-04-20 16:30 | 33.48586 | -117.93656 | 8003 ft | 270 kts | 332° |
| 2026-04-20 16:31 | 33.50347 | -117.94506 | 8004 ft | 274 kts | 339° |
| 2026-04-20 16:31 | 33.52152 | -117.95263 | 7998 ft | 274 kts | 340° |
| 2026-04-20 16:31 | 33.53939 | -117.96008 | 7992 ft | 274 kts | 340° |
| 2026-04-20 16:31 | 33.55738 | -117.96770 | 7993 ft | 274 kts | 339° |
| 2026-04-20 16:32 | 33.57529 | -117.97539 | 7995 ft | 274 kts | 339° |
| 2026-04-20 16:32 | 33.59325 | -117.98318 | 7994 ft | 273 kts | 339° |
| 2026-04-20 16:32 | 33.61178 | -117.98752 | 7995 ft | 273 kts | 360° |
| 2026-04-20 16:32 | 33.63086 | -117.98724 | 8002 ft | 273 kts | 1° |
| 2026-04-20 16:33 | 33.64985 | -117.98681 | 8002 ft | 273 kts | 1° |
| 2026-04-20 16:33 | 33.66864 | -117.98635 | 7998 ft | 274 kts | 1° |
| 2026-04-20 16:33 | 33.68773 | -117.98585 | 7997 ft | 274 kts | 1° |
| 2026-04-20 16:33 | 33.70681 | -117.98535 | 7996 ft | 274 kts | 1° |
| 2026-04-20 16:34 | 33.71950 | -117.98502 | 7972 ft | 274 kts | 1° |
| 2026-04-20 16:34 | 33.74485 | -117.98435 | 7974 ft | 274 kts | 1° |
| 2026-04-20 16:34 | 33.76401 | -117.98384 | 7973 ft | 274 kts | 1° |
| 2026-04-20 16:34 | 33.78295 | -117.98333 | 7972 ft | 274 kts | 1° |
| 2026-04-20 16:35 | 33.79589 | -117.98298 | 7973 ft | 275 kts | 1° |
| 2026-04-20 16:35 | 33.81486 | -117.98248 | 7991 ft | 275 kts | 1° |
| 2026-04-20 16:35 | 33.84031 | -117.98181 | 7991 ft | 275 kts | 1° |
| 2026-04-20 16:35 | 33.85303 | -117.98148 | 7969 ft | 272 kts | 1° |
| 2026-04-20 16:36 | 33.87176 | -117.98100 | 7836 ft | 265 kts | 1° |
| 2026-04-20 16:36 | 33.88974 | -117.98055 | 7705 ft | 251 kts | 1° |
| 2026-04-20 16:36 | 33.90716 | -117.98011 | 7376 ft | 247 kts | 1° |
| 2026-04-20 16:36 | 33.92437 | -117.97971 | 7003 ft | 246 kts | 1° |
| 2026-04-20 16:37 | 33.94128 | -117.97933 | 6643 ft | 245 kts | 1° |
| 2026-04-20 16:37 | 33.95828 | -117.97898 | 6294 ft | 243 kts | 360° |
| 2026-04-20 16:37 | 33.97447 | -117.98329 | 5880 ft | 240 kts | 329° |
| 2026-04-20 16:37 | 33.98626 | -117.99675 | 5507 ft | 235 kts | 298° |
| 2026-04-20 16:38 | 33.99341 | -118.01435 | 5161 ft | 231 kts | 292° |
| 2026-04-20 16:38 | 33.99704 | -118.03286 | 4855 ft | 222 kts | 259° |
| 2026-04-20 16:38 | 33.99335 | -118.04945 | 4760 ft | 205 kts | 252° |
| 2026-04-20 16:38 | 33.98989 | -118.06571 | 4514 ft | 197 kts | 255° |
| 2026-04-20 16:39 | 33.98698 | -118.08186 | 4141 ft | 197 kts | 257° |
| 2026-04-20 16:39 | 33.98434 | -118.09778 | 4003 ft | 193 kts | 257° |
| 2026-04-20 16:39 | 33.98181 | -118.11369 | 4020 ft | 194 kts | 257° |
| 2026-04-20 16:39 | 33.97955 | -118.12991 | 4026 ft | 196 kts | 261° |
| 2026-04-20 16:40 | 33.97790 | -118.14605 | 4019 ft | 196 kts | 262° |
| 2026-04-20 16:40 | 33.97629 | -118.16243 | 3959 ft | 197 kts | 262° |
| 2026-04-20 16:40 | 33.97464 | -118.17911 | 3707 ft | 201 kts | 262° |
| 2026-04-20 16:40 | 33.97301 | -118.19554 | 3452 ft | 197 kts | 262° |
| 2026-04-20 16:41 | 33.97139 | -118.21180 | 3192 ft | 192 kts | 262° |
| 2026-04-20 16:41 | 33.96982 | -118.22745 | 2945 ft | 189 kts | 262° |
| 2026-04-20 16:41 | 33.96822 | -118.24334 | 2696 ft | 190 kts | 262° |
| 2026-04-20 16:41 | 33.96664 | -118.25894 | 2446 ft | 188 kts | 262° |
| 2026-04-20 16:42 | 33.96507 | -118.27442 | 2195 ft | 183 kts | 262° |
| 2026-04-20 16:42 | 33.96355 | -118.28948 | 1965 ft | 183 kts | 262° |
| 2026-04-20 16:42 | 33.96199 | -118.30486 | 1715 ft | 184 kts | 262° |
| 2026-04-20 16:42 | 33.96049 | -118.31962 | 1457 ft | 172 kts | 262° |
| 2026-04-20 16:43 | 33.95911 | -118.33328 | 1285 ft | 152 kts | 262° |
| 2026-04-20 16:43 | 33.95786 | -118.34553 | 1052 ft | 146 kts | 262° |
| 2026-04-20 16:43 | 33.95662 | -118.35747 | 905 ft | 139 kts | 263° |
| 2026-04-20 16:43 | 33.95550 | -118.36902 | 753 ft | 140 kts | 263° |
| 2026-04-20 16:44 | 33.95434 | -118.38037 | 511 ft | 133 kts | 263° |
| 2026-04-20 16:44 | 33.95321 | -118.39174 | 320 ft | 138 kts | 262° |
| 2026-04-20 16:44 | 33.95199 | -118.40303 | 123 ft | 128 kts | 263° |
| 2026-04-20 16:44 | 33.95103 | -118.41234 | 105 ft | 88 kts | 263° |
| 2026-04-20 16:45 | 33.95056 | -118.41656 | 107 ft | 35 kts | 256° |
| 2026-04-20 16:45 | 33.94952 | -118.41905 | 102 ft | 33 kts | 233° |
| 2026-04-20 16:45 | 33.94823 | -118.42109 | 106 ft | 29 kts | 232° |
| 2026-04-20 16:45 | 33.94717 | -118.42245 | 100 ft | 15 kts | 181° |
| 2026-04-20 16:46 | 33.94690 | -118.42160 | 100 ft | 9 kts | 82° |
| 2026-04-20 16:46 | 33.94697 | -118.42102 | 97 ft | 7 kts | 82° |
| 2026-04-20 16:46 | 33.94703 | -118.42046 | 98 ft | 7 kts | 83° |
| 2026-04-20 16:46 | 33.94708 | -118.41991 | 97 ft | 7 kts | 83° |
| 2026-04-20 16:47 | 33.94714 | -118.41937 | 97 ft | 6 kts | 84° |
| 2026-04-20 16:47 | 33.94720 | -118.41870 | 97 ft | 12 kts | 84° |
| 2026-04-20 16:47 | 33.94733 | -118.41735 | 98 ft | 18 kts | 83° |
| 2026-04-20 16:47 | 33.94750 | -118.41582 | 99 ft | 19 kts | 82° |
| 2026-04-20 16:48 | 33.94766 | -118.41430 | 100 ft | 18 kts | 78° |
| 2026-04-20 16:48 | 33.94792 | -118.41287 | 99 ft | 17 kts | 82° |
| 2026-04-20 16:48 | 33.94807 | -118.41147 | 99 ft | 17 kts | 83° |
| 2026-04-20 16:48 | 33.94820 | -118.41010 | 100 ft | 17 kts | 83° |
| 2026-04-20 16:49 | 33.94802 | -118.40884 | 97 ft | 14 kts | 149° |
| 2026-04-20 16:49 | 33.94740 | -118.40852 | 96 ft | 6 kts | 164° |
| 2026-04-20 16:49 | 33.94702 | -118.40839 | 96 ft | 2 kts | 143° |
| 2026-04-20 16:49 | 33.94691 | -118.40827 | 95 ft | 2 kts | 138° |
| 2026-04-20 16:50 | 33.94685 | -118.40820 | 96 ft | 0 kts | 136° |